Mimosa — WDJ6232 — position and weather

sailwx.info

Track history (hours):
 
Tides and Currents Weather Stations Pressure Air Temp Water Temp Dewpoint Dewpoint Depression Visibility Wind Speed Wind Dir Waves Ship Positions

Mimosa

Owner: MAR Y SOL LLC, Wilmington, DE. More information available from US FCC via Universal Licensing System and Coast Guard Vessel Documentation Center.

Last reported at 2017-Nov-25 17:11 UTC. Time now 2017-Dec-12 04:26 UTC.
Position N 26°06' W 080°07'.
Warning: this ship's position is 16 days out of date.

Length 21 m.

Type: Pleasure craft. MMSI: 367795720.

Date/timePositionNaut miles runAvg speedWind from/ knotsBaromVisibWave heightAir tempDewpointWater temp
2017-Nov-25 17:11N 26°06' W 080°07'34 0.8
2017-Nov-23 19:48N 26°41' W 080°03'2 2.9
2017-Nov-23 19:14N 26°42' W 080°03'13 8.6
2017-Nov-23 17:40N 26°56' W 080°05'1 7.6
2017-Nov-23 17:30N 26°57' W 080°05'2913.1
2017-Nov-23 15:18N 27°23' W 080°17'515.8
2017-Nov-23 15:00N 27°28' W 080°19'  
2017-Nov-18 14:21N 34°43' W 076°46'3 9.7
2017-Nov-18 14:00N 34°43' W 076°42'2 3.7
2017-Nov-18 13:29N 34°43' W 076°40'0 0.0
2017-Nov-18 12:59N 34°43' W 076°40'0 0.0
2017-Nov-18 12:29N 34°43' W 076°40'0 0.0
2017-Nov-18 11:59N 34°43' W 076°40'0 0.0
2017-Nov-18 11:29N 34°43' W 076°40'0 0.0
2017-Nov-18 10:59N 34°43' W 076°40'0 0.0
2017-Nov-18 10:29N 34°43' W 076°40'0 0.0
2017-Nov-18 09:59N 34°43' W 076°40'0 0.0
2017-Nov-18 09:20N 34°43' W 076°40'0 0.0
2017-Nov-18 08:59N 34°43' W 076°40'0 0.0
2017-Nov-18 08:29N 34°43' W 076°40'0 0.0
2017-Nov-18 07:59N 34°43' W 076°40'0 0.0
2017-Nov-18 07:29N 34°43' W 076°40'0 0.0
2017-Nov-18 06:56N 34°43' W 076°40'0 0.0
2017-Nov-18 06:29N 34°43' W 076°40'0 0.0
2017-Nov-18 05:59N 34°43' W 076°40'0 0.0
2017-Nov-18 05:29N 34°43' W 076°40'0 0.0
2017-Nov-18 04:59N 34°43' W 076°40'0 0.0
2017-Nov-18 04:29N 34°43' W 076°40'0 0.0
2017-Nov-18 03:59N 34°43' W 076°40'0 0.0
2017-Nov-18 03:29N 34°43' W 076°40'0 0.0
2017-Nov-18 02:59N 34°43' W 076°40'0 0.0
2017-Nov-18 02:29N 34°43' W 076°40'0 0.0
2017-Nov-18 01:59N 34°43' W 076°40'0 0.0
2017-Nov-18 01:29N 34°43' W 076°40'0 0.0
2017-Nov-18 00:59N 34°43' W 076°40'0 0.0
2017-Nov-18 00:29N 34°43' W 076°40'0 0.0
2017-Nov-17 23:59N 34°43' W 076°40'0 0.0
2017-Nov-17 23:29N 34°43' W 076°40'0 0.0
2017-Nov-17 22:59N 34°43' W 076°40'0 0.0
2017-Nov-17 22:29N 34°43' W 076°40'0 0.0
2017-Nov-17 21:59N 34°43' W 076°40'0 0.0
2017-Nov-17 21:29N 34°43' W 076°40'0 0.0
2017-Nov-17 20:59N 34°43' W 076°40'0 0.0
2017-Nov-17 20:29N 34°43' W 076°40'0 0.0
2017-Nov-17 19:59N 34°43' W 076°40'0 0.0
2017-Nov-17 19:29N 34°43' W 076°40'0 0.0
2017-Nov-17 18:59N 34°43' W 076°40'0 0.0
2017-Nov-17 18:29N 34°43' W 076°40'0 0.0
2017-Nov-17 17:59N 34°43' W 076°40'0 0.0
2017-Nov-17 17:29N 34°43' W 076°40'0 0.0
2017-Nov-17 16:59N 34°43' W 076°40'1 1.8
2017-Nov-17 16:30N 34°44' W 076°40'122 2.7
2017-Nov-15 20:10N 36°44' W 076°15'3 7.7
2017-Nov-15 19:49N 36°46' W 076°18'1 3.7
2017-Nov-15 19:30N 36°47' W 076°18'  
Track history (hours):
 
Tides and Currents Weather Stations Pressure Air Temp Water Temp Dewpoint Dewpoint Depression Visibility Wind Speed Wind Dir Waves Ship Positions

Mimosa

Owner: MAR Y SOL LLC, Wilmington, DE. More information available from US FCC via Universal Licensing System and Coast Guard Vessel Documentation Center.

Last reported at 2017-Nov-25 17:11 UTC. Time now 2017-Dec-12 04:26 UTC.
Position N 26°06' W 080°07'.
Warning: this ship's position is 16 days out of date.

Length 21 m.

Type: Pleasure craft. MMSI: 367795720.

Date/timePositionNaut miles runAvg speedWind from/ knotsBaromVisibWave heightAir tempDewpointWater temp
2017-Nov-25 17:11N 26°06' W 080°07'34 0.8
2017-Nov-23 19:48N 26°41' W 080°03'2 2.9
2017-Nov-23 19:14N 26°42' W 080°03'13 8.6
2017-Nov-23 17:40N 26°56' W 080°05'1 7.6
2017-Nov-23 17:30N 26°57' W 080°05'2913.1
2017-Nov-23 15:18N 27°23' W 080°17'515.8
2017-Nov-23 15:00N 27°28' W 080°19'  
2017-Nov-18 14:21N 34°43' W 076°46'3 9.7
2017-Nov-18 14:00N 34°43' W 076°42'2 3.7
2017-Nov-18 13:29N 34°43' W 076°40'0 0.0
2017-Nov-18 12:59N 34°43' W 076°40'0 0.0
2017-Nov-18 12:29N 34°43' W 076°40'0 0.0
2017-Nov-18 11:59N 34°43' W 076°40'0 0.0
2017-Nov-18 11:29N 34°43' W 076°40'0 0.0
2017-Nov-18 10:59N 34°43' W 076°40'0 0.0
2017-Nov-18 10:29N 34°43' W 076°40'0 0.0
2017-Nov-18 09:59N 34°43' W 076°40'0 0.0
2017-Nov-18 09:20N 34°43' W 076°40'0 0.0
2017-Nov-18 08:59N 34°43' W 076°40'0 0.0
2017-Nov-18 08:29N 34°43' W 076°40'0 0.0
2017-Nov-18 07:59N 34°43' W 076°40'0 0.0
2017-Nov-18 07:29N 34°43' W 076°40'0 0.0
2017-Nov-18 06:56N 34°43' W 076°40'0 0.0
2017-Nov-18 06:29N 34°43' W 076°40'0 0.0
2017-Nov-18 05:59N 34°43' W 076°40'0 0.0
2017-Nov-18 05:29N 34°43' W 076°40'0 0.0
2017-Nov-18 04:59N 34°43' W 076°40'0 0.0
2017-Nov-18 04:29N 34°43' W 076°40'0 0.0
2017-Nov-18 03:59N 34°43' W 076°40'0 0.0
2017-Nov-18 03:29N 34°43' W 076°40'0 0.0
2017-Nov-18 02:59N 34°43' W 076°40'0 0.0
2017-Nov-18 02:29N 34°43' W 076°40'0 0.0
2017-Nov-18 01:59N 34°43' W 076°40'0 0.0
2017-Nov-18 01:29N 34°43' W 076°40'0 0.0
2017-Nov-18 00:59N 34°43' W 076°40'0 0.0
2017-Nov-18 00:29N 34°43' W 076°40'0 0.0
2017-Nov-17 23:59N 34°43' W 076°40'0 0.0
2017-Nov-17 23:29N 34°43' W 076°40'0 0.0
2017-Nov-17 22:59N 34°43' W 076°40'0 0.0
2017-Nov-17 22:29N 34°43' W 076°40'0 0.0
2017-Nov-17 21:59N 34°43' W 076°40'0 0.0
2017-Nov-17 21:29N 34°43' W 076°40'0 0.0
2017-Nov-17 20:59N 34°43' W 076°40'0 0.0
2017-Nov-17 20:29N 34°43' W 076°40'0 0.0
2017-Nov-17 19:59N 34°43' W 076°40'0 0.0
2017-Nov-17 19:29N 34°43' W 076°40'0 0.0
2017-Nov-17 18:59N 34°43' W 076°40'0 0.0
2017-Nov-17 18:29N 34°43' W 076°40'0 0.0
2017-Nov-17 17:59N 34°43' W 076°40'0 0.0
2017-Nov-17 17:29N 34°43' W 076°40'0 0.0
2017-Nov-17 16:59N 34°43' W 076°40'1 1.8
2017-Nov-17 16:30N 34°44' W 076°40'122 2.7
2017-Nov-15 20:10N 36°44' W 076°15'3 7.7
2017-Nov-15 19:49N 36°46' W 076°18'1 3.7
2017-Nov-15 19:30N 36°47' W 076°18'  

Dump ship's entire track history